createdAt,value
2019-03-24T00:00:35.984Z,22.09
2019-03-24T00:01:41.018Z,22.13
2019-03-24T00:02:35.964Z,22.13
2019-03-24T00:03:35.960Z,22.14
2019-03-24T00:04:35.955Z,22.08
2019-03-24T00:05:35.948Z,22.09
2019-03-24T00:06:35.943Z,22.08
2019-03-24T00:07:35.942Z,22.17
2019-03-24T00:08:35.927Z,22.14
2019-03-24T00:09:35.926Z,22.14
2019-03-24T00:10:35.915Z,22.09
2019-03-24T00:11:35.912Z,22.17
2019-03-24T00:12:35.903Z,22.09
2019-03-24T00:13:35.897Z,22.14
2019-03-24T00:14:35.892Z,22.06
2019-03-24T00:15:35.889Z,21.99
2019-03-24T00:16:35.882Z,22.02
2019-03-24T00:17:35.873Z,22.16
2019-03-24T00:18:35.866Z,22.16
2019-03-24T00:19:35.861Z,22.09
2019-03-24T00:20:35.854Z,22.14
2019-03-24T00:21:35.847Z,22.13
2019-03-24T00:22:35.843Z,22.13
2019-03-24T00:23:35.837Z,22.04
2019-03-24T00:24:35.829Z,22.04
2019-03-24T00:25:35.830Z,22.01
2019-03-24T00:26:35.820Z,22.11
2019-03-24T00:27:35.836Z,22.08
2019-03-24T00:28:35.828Z,22.11
2019-03-24T00:29:35.821Z,22.23
2019-03-24T00:30:35.814Z,22.05
2019-03-24T00:31:35.807Z,22.06
2019-03-24T00:32:35.800Z,22.05
2019-03-24T00:33:35.794Z,22.11
2019-03-24T00:34:35.790Z,22.06
2019-03-24T00:35:35.782Z,22.08
2019-03-24T00:36:35.773Z,21.98
2019-03-24T00:37:35.770Z,22.09
2019-03-24T00:38:35.761Z,22.09
2019-03-24T00:39:35.754Z,21.95
2019-03-24T00:40:35.746Z,22.11
2019-03-24T00:41:35.738Z,22.02
2019-03-24T00:42:35.747Z,21.98
2019-03-24T00:43:35.729Z,21.98
2019-03-24T00:44:35.717Z,22.14
2019-03-24T00:45:37.015Z,22.09
2019-03-24T00:46:35.721Z,21.93
2019-03-24T00:47:35.712Z,22.02
2019-03-24T00:48:35.707Z,21.99
2019-03-24T00:49:35.702Z,21.93
2019-03-24T00:50:35.695Z,21.93
2019-03-24T00:51:35.693Z,22.04
2019-03-24T00:52:35.687Z,21.97
2019-03-24T00:53:35.676Z,22.02
2019-03-24T00:54:35.674Z,22.01
2019-03-24T00:55:35.666Z,21.95
2019-03-24T00:56:35.657Z,22.09
2019-03-24T00:57:37.571Z,21.99
2019-03-24T00:58:35.645Z,22.01
2019-03-24T00:59:35.640Z,21.95
2019-03-24T01:00:35.635Z,21.98
2019-03-24T01:01:35.634Z,21.93
2019-03-24T01:02:35.617Z,22.01
2019-03-24T01:03:35.614Z,22.02
2019-03-24T01:04:35.605Z,21.93
2019-03-24T01:05:35.599Z,22.05
2019-03-24T01:06:35.594Z,21.97
2019-03-24T01:07:35.588Z,21.99
2019-03-24T01:08:35.580Z,22.01
2019-03-24T01:09:35.576Z,21.95
2019-03-24T01:10:35.567Z,21.93
2019-03-24T01:11:35.561Z,21.91
2019-03-24T01:12:35.553Z,22.02
2019-03-24T01:13:35.552Z,21.99
2019-03-24T01:14:35.555Z,21.97
2019-03-24T01:15:35.534Z,22.04
2019-03-24T01:16:35.554Z,22.02
2019-03-24T01:17:35.545Z,21.97
2019-03-24T01:18:35.538Z,22.02
2019-03-24T01:19:35.533Z,22.02
2019-03-24T01:20:35.532Z,21.99
2019-03-24T01:21:35.531Z,21.98
2019-03-24T01:22:35.512Z,21.95
2019-03-24T01:23:35.506Z,21.99
2019-03-24T01:24:35.507Z,21.86
2019-03-24T01:25:35.495Z,21.93
2019-03-24T01:26:35.490Z,21.98
2019-03-24T01:27:35.482Z,21.95
2019-03-24T01:28:35.474Z,21.91
2019-03-24T01:29:35.470Z,22.02
2019-03-24T01:30:35.463Z,21.98
2019-03-24T01:31:35.455Z,21.90
2019-03-24T01:32:35.449Z,22.01
2019-03-24T01:33:35.444Z,21.95
2019-03-24T01:34:35.438Z,21.80
2019-03-24T01:35:35.433Z,21.89
2019-03-24T01:36:35.430Z,22.04
2019-03-24T01:37:35.442Z,21.98
2019-03-24T01:38:35.441Z,21.91
2019-03-24T01:39:35.429Z,21.95
2019-03-24T01:40:35.421Z,21.99
2019-03-24T01:41:35.431Z,21.89
2019-03-24T01:42:35.408Z,22.02
2019-03-24T01:43:35.399Z,21.97
2019-03-24T01:44:35.393Z,21.89
2019-03-24T01:45:35.389Z,21.95
2019-03-24T01:46:35.379Z,21.90
2019-03-24T01:47:35.371Z,21.87
2019-03-24T01:48:35.370Z,21.99
2019-03-24T01:49:35.364Z,21.97
2019-03-24T01:50:35.356Z,21.95
2019-03-24T01:51:35.352Z,21.93
2019-03-24T01:52:35.344Z,21.89
2019-03-24T01:53:35.381Z,21.90
2019-03-24T01:54:35.333Z,21.90
2019-03-24T01:55:35.325Z,21.90
2019-03-24T01:56:35.323Z,21.87
2019-03-24T01:57:35.311Z,21.90
2019-03-24T01:58:35.309Z,21.91
2019-03-24T01:59:35.296Z,21.89
2019-03-24T02:00:35.291Z,21.93
2019-03-24T02:01:35.285Z,21.86
2019-03-24T02:02:35.278Z,21.97
2019-03-24T02:03:35.271Z,21.82
2019-03-24T02:04:35.264Z,21.93
2019-03-24T02:05:35.255Z,21.83
2019-03-24T02:06:35.271Z,21.89
2019-03-24T02:07:35.264Z,21.84
2019-03-24T02:08:35.256Z,21.84
2019-03-24T02:09:35.250Z,21.83
2019-03-24T02:10:35.241Z,21.82
2019-03-24T02:11:35.237Z,21.86
2019-03-24T02:12:35.232Z,21.82
2019-03-24T02:13:35.223Z,21.82
2019-03-24T02:14:35.216Z,21.86
2019-03-24T02:15:35.209Z,21.82
2019-03-24T02:16:35.201Z,21.82
2019-03-24T02:17:35.197Z,21.86
2019-03-24T02:18:35.188Z,21.86
2019-03-24T02:19:35.184Z,21.91
2019-03-24T02:20:35.176Z,21.83
2019-03-24T02:21:35.195Z,21.89
2019-03-24T02:22:35.193Z,21.79
2019-03-24T02:23:35.187Z,21.84
2019-03-24T02:24:35.180Z,21.86
2019-03-24T02:25:35.174Z,21.90
2019-03-24T02:26:35.167Z,21.93
2019-03-24T02:27:35.157Z,21.83
2019-03-24T02:28:35.154Z,21.80
2019-03-24T02:29:35.145Z,21.86
2019-03-24T02:30:35.140Z,21.83
2019-03-24T02:31:35.134Z,21.80
2019-03-24T02:32:35.126Z,21.87
2019-03-24T02:33:35.137Z,21.89
2019-03-24T02:34:35.111Z,21.90
2019-03-24T02:35:35.106Z,21.83
2019-03-24T02:36:35.102Z,21.87
2019-03-24T02:37:35.090Z,21.86
2019-03-24T02:38:35.082Z,21.83
2019-03-24T02:39:35.076Z,21.93
2019-03-24T02:40:35.077Z,21.91
2019-03-24T02:41:35.062Z,21.90
2019-03-24T02:42:35.060Z,21.80
2019-03-24T02:43:35.055Z,21.84
2019-03-24T02:44:35.045Z,21.80
2019-03-24T02:45:35.038Z,21.83
2019-03-24T02:46:35.030Z,21.77
2019-03-24T02:47:35.026Z,21.84
2019-03-24T02:48:35.017Z,21.86
2019-03-24T02:49:35.015Z,21.77
2019-03-24T02:50:35.004Z,21.83
2019-03-24T02:51:34.997Z,21.87
2019-03-24T02:52:34.989Z,21.74
2019-03-24T02:53:34.983Z,21.86
2019-03-24T02:54:34.980Z,21.83
2019-03-24T02:55:34.968Z,21.80
2019-03-24T02:56:34.975Z,21.82
2019-03-24T02:57:34.966Z,21.80
2019-03-24T02:58:34.978Z,21.79
2019-03-24T02:59:34.971Z,21.75
2019-03-24T03:00:34.939Z,21.80
2019-03-24T03:01:34.932Z,21.84
2019-03-24T03:02:34.928Z,21.79
2019-03-24T03:03:34.920Z,21.79
2019-03-24T03:04:34.914Z,21.74
2019-03-24T03:05:34.907Z,21.86
2019-03-24T03:06:34.941Z,21.65
2019-03-24T03:07:34.901Z,21.80
2019-03-24T03:08:34.894Z,21.75
2019-03-24T03:09:34.885Z,21.71
2019-03-24T03:10:34.931Z,21.79
2019-03-24T03:11:34.877Z,21.83
2019-03-24T03:12:34.864Z,21.75
2019-03-24T03:13:34.861Z,21.68
2019-03-24T03:14:34.853Z,21.74
2019-03-24T03:15:34.847Z,21.65
2019-03-24T03:16:38.583Z,21.77
2019-03-24T03:17:34.832Z,21.68
2019-03-24T03:18:34.829Z,21.74
2019-03-24T03:19:34.824Z,21.67
2019-03-24T03:20:34.838Z,21.72
2019-03-24T03:21:34.813Z,21.72
2019-03-24T03:22:34.807Z,21.69
2019-03-24T03:23:34.798Z,21.65
2019-03-24T03:24:34.787Z,21.72
2019-03-24T03:25:34.785Z,21.69
2019-03-24T03:26:34.777Z,21.69
2019-03-24T03:27:34.774Z,21.79
2019-03-24T03:28:34.762Z,21.71
2019-03-24T03:29:34.769Z,21.68
2019-03-24T03:30:34.782Z,21.69
2019-03-24T03:31:34.858Z,21.69
2019-03-24T03:32:34.768Z,21.71
2019-03-24T03:33:34.766Z,21.69
2019-03-24T03:34:34.787Z,21.61
2019-03-24T03:35:34.724Z,21.72
2019-03-24T03:36:34.710Z,21.64
2019-03-24T03:37:34.721Z,21.64
2019-03-24T03:38:34.696Z,21.65
2019-03-24T03:39:34.689Z,21.58
2019-03-24T03:40:34.743Z,21.65
2019-03-24T03:41:34.703Z,21.72
2019-03-24T03:42:34.669Z,21.71
2019-03-24T03:43:34.664Z,21.65
2019-03-24T03:44:34.669Z,21.64
2019-03-24T03:45:34.649Z,21.68
2019-03-24T03:46:34.649Z,21.68
2019-03-24T03:47:34.637Z,21.67
2019-03-24T03:48:34.630Z,21.62
2019-03-24T03:49:34.635Z,21.61
2019-03-24T03:50:34.615Z,21.74
2019-03-24T03:51:34.614Z,21.71
2019-03-24T03:52:34.605Z,21.71
2019-03-24T03:53:34.596Z,21.67
2019-03-24T03:54:34.589Z,21.68
2019-03-24T03:55:34.582Z,21.67
2019-03-24T03:56:34.579Z,21.69
2019-03-24T03:57:34.569Z,21.65
2019-03-24T03:58:34.569Z,21.69
2019-03-24T03:59:34.572Z,21.64
2019-03-24T04:00:34.588Z,21.59
2019-03-24T04:01:34.581Z,21.62
2019-03-24T04:02:34.576Z,21.68
2019-03-24T04:03:34.564Z,21.62
2019-03-24T04:04:34.567Z,21.68
2019-03-24T04:05:34.554Z,21.61
2019-03-24T04:06:34.553Z,21.58
2019-03-24T04:07:34.542Z,21.59
2019-03-24T04:08:34.533Z,21.64
2019-03-24T04:09:34.526Z,21.67
2019-03-24T04:10:34.521Z,21.61
2019-03-24T04:11:34.513Z,21.65
2019-03-24T04:12:34.507Z,21.59
2019-03-24T04:13:34.503Z,21.64
2019-03-24T04:14:34.496Z,21.61
2019-03-24T04:15:34.492Z,21.68
2019-03-24T04:16:34.487Z,21.50
2019-03-24T04:17:34.480Z,21.59
2019-03-24T04:18:34.488Z,21.64
2019-03-24T04:19:34.486Z,21.59
2019-03-24T04:20:34.481Z,21.62
2019-03-24T04:21:34.470Z,21.58
2019-03-24T04:22:34.474Z,21.58
2019-03-24T04:23:34.455Z,21.50
2019-03-24T04:24:34.446Z,21.56
2019-03-24T04:25:34.457Z,21.62
2019-03-24T04:26:34.434Z,21.54
2019-03-24T04:27:34.430Z,21.56
2019-03-24T04:28:34.420Z,21.64
2019-03-24T04:29:34.413Z,21.56
2019-03-24T04:30:34.411Z,21.54
2019-03-24T04:31:34.402Z,21.53
2019-03-24T04:32:34.397Z,21.53
2019-03-24T04:33:34.388Z,21.52
2019-03-24T04:34:34.390Z,21.54
2019-03-24T04:35:34.377Z,21.58
2019-03-24T04:36:34.372Z,21.56
2019-03-24T04:37:34.365Z,21.61
2019-03-24T04:38:34.355Z,21.54
2019-03-24T04:39:34.346Z,21.61
2019-03-24T04:40:34.338Z,21.61
2019-03-24T04:41:34.362Z,21.49
2019-03-24T04:42:34.353Z,21.54
2019-03-24T04:43:34.353Z,21.58
2019-03-24T04:44:34.340Z,21.50
2019-03-24T04:45:34.336Z,21.53
2019-03-24T04:46:34.327Z,21.56
2019-03-24T04:47:34.318Z,21.58
2019-03-24T04:48:34.312Z,21.61
2019-03-24T04:49:34.306Z,21.47
2019-03-24T04:50:34.300Z,21.54
2019-03-24T04:51:34.294Z,21.52
2019-03-24T04:52:34.283Z,21.53
2019-03-24T04:53:34.279Z,21.44
2019-03-24T04:54:34.273Z,21.52
2019-03-24T04:55:34.263Z,21.56
2019-03-24T04:56:34.261Z,21.50
2019-03-24T04:57:34.252Z,21.53
2019-03-24T04:58:34.244Z,21.49
2019-03-24T04:59:34.237Z,21.54
2019-03-24T05:00:34.231Z,21.40
2019-03-24T05:01:34.227Z,21.59
2019-03-24T05:02:34.220Z,21.50
2019-03-24T05:03:34.214Z,21.50
2019-03-24T05:04:34.206Z,21.58
2019-03-24T05:05:34.205Z,21.46
2019-03-24T05:06:34.195Z,21.49
2019-03-24T05:07:34.188Z,21.43
2019-03-24T05:08:34.185Z,21.40
2019-03-24T05:09:34.178Z,21.43
2019-03-24T05:10:34.172Z,21.50
2019-03-24T05:11:34.165Z,21.32
2019-03-24T05:12:34.192Z,21.46
2019-03-24T05:13:34.154Z,21.40
2019-03-24T05:14:34.152Z,21.38
2019-03-24T05:15:34.140Z,21.37
2019-03-24T05:16:34.134Z,21.49
2019-03-24T05:17:34.131Z,21.52
2019-03-24T05:18:34.123Z,21.50
2019-03-24T05:19:34.116Z,21.40
2019-03-24T05:20:34.113Z,21.49
2019-03-24T05:21:34.105Z,21.43
2019-03-24T05:22:34.097Z,21.43
2019-03-24T05:23:34.092Z,21.53
2019-03-24T05:24:34.085Z,21.49
2019-03-24T05:25:34.085Z,21.46
2019-03-24T05:26:34.067Z,21.49
2019-03-24T05:27:34.061Z,21.43
2019-03-24T05:28:34.054Z,21.44
2019-03-24T05:29:34.048Z,21.38
2019-03-24T05:30:34.039Z,21.49
2019-03-24T05:31:34.032Z,21.38
2019-03-24T05:32:34.024Z,21.47
2019-03-24T05:33:34.016Z,21.52
2019-03-24T05:34:34.012Z,21.40
2019-03-24T05:35:34.007Z,21.44
2019-03-24T05:36:34.003Z,21.46
2019-03-24T05:37:34.004Z,21.50
2019-03-24T05:38:33.990Z,21.53
2019-03-24T05:39:33.982Z,21.44
2019-03-24T05:40:33.979Z,21.47
2019-03-24T05:41:33.967Z,21.46
2019-03-24T05:42:33.959Z,21.43
2019-03-24T05:43:33.954Z,21.40
2019-03-24T05:44:33.948Z,21.44
2019-03-24T05:45:33.946Z,21.46
2019-03-24T05:46:33.937Z,21.46
2019-03-24T05:47:37.389Z,21.42
2019-03-24T05:48:33.923Z,21.49
2019-03-24T05:49:33.927Z,21.47
2019-03-24T05:50:33.909Z,21.44
2019-03-24T05:51:33.903Z,21.49
2019-03-24T05:52:33.898Z,21.43
2019-03-24T05:53:33.890Z,21.54
2019-03-24T05:54:33.902Z,21.46
2019-03-24T05:55:33.878Z,21.49
2019-03-24T05:56:33.872Z,21.47
2019-03-24T05:57:33.866Z,21.49
2019-03-24T05:58:33.857Z,21.49
2019-03-24T05:59:33.876Z,21.50
2019-03-24T06:00:33.868Z,21.67
2019-03-24T06:01:33.865Z,21.53
2019-03-24T06:02:33.858Z,21.58
2019-03-24T06:03:33.853Z,21.50
2019-03-24T06:04:33.847Z,21.54
2019-03-24T06:05:33.838Z,21.65
2019-03-24T06:06:33.833Z,21.56
2019-03-24T06:07:33.829Z,21.61
2019-03-24T06:08:35.769Z,21.54
2019-03-24T06:09:33.821Z,21.50
2019-03-24T06:10:33.817Z,21.59
2019-03-24T06:11:33.803Z,21.52
2019-03-24T06:12:33.797Z,21.68
2019-03-24T06:13:33.790Z,21.58
2019-03-24T06:14:33.781Z,21.68
2019-03-24T06:15:33.774Z,21.59
2019-03-24T06:16:33.769Z,21.65
2019-03-24T06:17:33.763Z,21.69
2019-03-24T06:18:33.757Z,21.69
2019-03-24T06:19:33.756Z,21.61
2019-03-24T06:20:33.742Z,21.64
2019-03-24T06:21:33.739Z,21.65
2019-03-24T06:22:33.732Z,21.67
2019-03-24T06:23:33.722Z,21.62
2019-03-24T06:24:33.715Z,21.64
2019-03-24T06:25:35.036Z,21.64
2019-03-24T06:26:33.704Z,21.64
2019-03-24T06:27:33.698Z,21.79
2019-03-24T06:28:33.687Z,21.71
2019-03-24T06:29:33.682Z,21.82
2019-03-24T06:30:33.675Z,21.77
2019-03-24T06:31:33.668Z,21.86
2019-03-24T06:32:33.661Z,21.83
2019-03-24T06:33:33.657Z,21.77
2019-03-24T06:34:33.649Z,21.75
2019-03-24T06:35:33.645Z,21.80
2019-03-24T06:36:33.637Z,21.82
2019-03-24T06:37:33.653Z,21.90
2019-03-24T06:38:33.648Z,21.99
2019-03-24T06:39:33.638Z,21.90
2019-03-24T06:40:33.634Z,21.87
2019-03-24T06:41:33.630Z,21.91
2019-03-24T06:42:33.621Z,21.93
2019-03-24T06:43:33.615Z,21.84
2019-03-24T06:44:33.608Z,21.95
2019-03-24T06:45:33.606Z,21.91
2019-03-24T06:46:33.597Z,21.93
2019-03-24T06:47:33.590Z,22.02
2019-03-24T06:48:33.584Z,21.99
2019-03-24T06:49:33.576Z,22.08
2019-03-24T06:50:33.570Z,21.93
2019-03-24T06:51:33.566Z,22.13
2019-03-24T06:52:33.559Z,22.16
2019-03-24T06:53:33.565Z,22.05
2019-03-24T06:54:33.558Z,22.14
2019-03-24T06:55:33.550Z,22.11
2019-03-24T06:56:33.542Z,22.16
2019-03-24T06:57:33.538Z,22.16
2019-03-24T06:58:33.533Z,22.20
2019-03-24T06:59:33.529Z,22.20
2019-03-24T07:00:33.522Z,22.21
2019-03-24T07:01:33.512Z,22.24
2019-03-24T07:02:33.506Z,22.14
2019-03-24T07:03:33.496Z,22.19
2019-03-24T07:04:33.494Z,22.32
2019-03-24T07:05:33.488Z,22.27
2019-03-24T07:06:34.770Z,22.35
2019-03-24T07:07:33.479Z,22.34
2019-03-24T07:08:33.470Z,22.35
2019-03-24T07:09:33.466Z,22.35
2019-03-24T07:10:33.459Z,22.41
2019-03-24T07:11:33.452Z,22.42
2019-03-24T07:12:33.445Z,22.42
2019-03-24T07:13:33.442Z,22.51
2019-03-24T07:14:33.432Z,22.60
2019-03-24T07:15:33.433Z,22.64
2019-03-24T07:16:33.428Z,22.60
2019-03-24T07:17:33.422Z,22.62
2019-03-24T07:18:33.419Z,22.62
2019-03-24T07:19:33.414Z,22.65
2019-03-24T07:20:33.404Z,22.72
2019-03-24T07:21:33.397Z,22.76
2019-03-24T07:22:33.392Z,22.79
2019-03-24T07:23:33.382Z,22.85
2019-03-24T07:24:33.412Z,22.77
2019-03-24T07:25:33.373Z,22.86
2019-03-24T07:26:33.367Z,22.90
2019-03-24T07:27:33.360Z,22.92
2019-03-24T07:28:33.358Z,23.01
2019-03-24T07:29:33.345Z,22.98
2019-03-24T07:30:33.336Z,23.00
2019-03-24T07:31:33.331Z,22.97
2019-03-24T07:32:33.324Z,23.09
2019-03-24T07:33:33.317Z,23.09
2019-03-24T07:34:33.309Z,23.09
2019-03-24T07:35:33.300Z,23.13
2019-03-24T07:36:33.295Z,23.17
2019-03-24T07:37:33.289Z,23.27
2019-03-24T07:38:33.282Z,23.28
2019-03-24T07:39:33.275Z,23.37
2019-03-24T07:40:33.268Z,23.27
2019-03-24T07:41:33.264Z,23.37
2019-03-24T07:42:33.256Z,23.35
2019-03-24T07:43:33.288Z,23.46
2019-03-24T07:44:33.243Z,23.49
2019-03-24T07:45:33.239Z,23.50
2019-03-24T07:46:33.231Z,23.60
2019-03-24T07:47:33.222Z,23.57
2019-03-24T07:48:33.219Z,23.59
2019-03-24T07:49:33.212Z,23.72
2019-03-24T07:50:33.207Z,23.72
2019-03-24T07:51:33.203Z,23.78
2019-03-24T07:52:33.192Z,23.86
2019-03-24T07:53:33.184Z,23.94
2019-03-24T07:54:33.176Z,24.03
2019-03-24T07:55:33.185Z,24.22
2019-03-24T07:56:33.169Z,24.25
2019-03-24T07:57:33.159Z,24.32
2019-03-24T07:58:33.151Z,24.49
2019-03-24T07:59:33.144Z,24.60
2019-03-24T08:00:33.139Z,24.75
2019-03-24T08:01:33.131Z,24.84
2019-03-24T08:02:33.126Z,25.02
2019-03-24T08:03:33.120Z,25.09
2019-03-24T08:04:33.114Z,25.24
2019-03-24T08:05:33.108Z,25.45
2019-03-24T08:06:33.101Z,25.51
2019-03-24T08:07:33.132Z,25.58
2019-03-24T08:08:33.088Z,25.80
2019-03-24T08:09:33.082Z,25.92
2019-03-24T08:10:33.076Z,25.97
2019-03-24T08:11:33.073Z,26.13
2019-03-24T08:12:33.068Z,26.24
2019-03-24T08:13:33.054Z,26.29
2019-03-24T08:14:33.049Z,26.50
2019-03-24T08:15:33.043Z,26.61
2019-03-24T08:16:33.036Z,26.68
2019-03-24T08:17:33.029Z,26.75
2019-03-24T08:18:33.021Z,26.87
2019-03-24T08:19:33.018Z,27.06
2019-03-24T08:20:33.009Z,27.12
2019-03-24T08:21:33.004Z,27.32
2019-03-24T08:22:32.999Z,27.39
2019-03-24T08:23:32.997Z,27.55
2019-03-24T08:24:32.989Z,27.65
2019-03-24T08:25:32.979Z,27.66
2019-03-24T08:26:32.986Z,27.84
2019-03-24T08:27:32.980Z,27.86
2019-03-24T08:28:32.975Z,27.96
2019-03-24T08:29:32.967Z,27.99
2019-03-24T08:30:32.963Z,28.06
2019-03-24T08:31:32.955Z,28.10
2019-03-24T08:32:32.953Z,28.16
2019-03-24T08:33:32.943Z,28.26
2019-03-24T08:34:32.935Z,28.39
2019-03-24T08:35:32.932Z,28.43
2019-03-24T08:36:32.924Z,28.49
2019-03-24T08:37:32.916Z,28.62
2019-03-24T08:38:32.911Z,28.64
2019-03-24T08:39:32.903Z,28.70
2019-03-24T08:40:32.904Z,28.76
2019-03-24T08:41:32.890Z,28.77
2019-03-24T08:42:32.887Z,28.95
2019-03-24T08:43:32.875Z,29.01
2019-03-24T08:44:32.871Z,28.98
2019-03-24T08:45:32.864Z,29.11
2019-03-24T08:46:32.853Z,28.99
2019-03-24T08:47:32.850Z,29.20
2019-03-24T08:48:40.367Z,29.07
2019-03-24T08:50:00.613Z,29.04
2019-03-24T08:51:00.611Z,29.04
2019-03-24T08:52:00.603Z,29.07
2019-03-24T08:53:00.595Z,28.96
2019-03-24T08:54:00.636Z,28.96
2019-03-24T08:55:00.585Z,29.08
2019-03-24T08:56:00.578Z,29.01
2019-03-24T08:57:00.574Z,29.08
2019-03-24T08:58:00.569Z,29.01
2019-03-24T08:59:00.563Z,28.90
2019-03-24T09:00:00.557Z,28.95
2019-03-24T09:01:00.562Z,28.93
2019-03-24T09:02:00.545Z,28.68
2019-03-24T09:03:00.537Z,28.76
2019-03-24T09:04:00.530Z,28.71
2019-03-24T09:05:00.526Z,28.71
2019-03-24T09:06:00.516Z,28.61
2019-03-24T09:07:00.508Z,28.44
2019-03-24T09:08:00.504Z,28.39
2019-03-24T09:09:00.499Z,28.21
2019-03-24T09:10:00.490Z,28.14
2019-03-24T09:11:00.485Z,28.01
2019-03-24T09:12:00.478Z,27.92
2019-03-24T09:13:00.472Z,27.81
2019-03-24T09:14:00.466Z,27.80
2019-03-24T09:15:00.457Z,27.58
2019-03-24T09:16:00.457Z,27.58
2019-03-24T09:17:00.448Z,27.55
2019-03-24T09:18:00.436Z,27.34
2019-03-24T09:19:00.429Z,27.25
2019-03-24T09:20:00.424Z,27.25
2019-03-24T09:21:00.419Z,27.21
2019-03-24T09:22:00.416Z,27.19
2019-03-24T09:23:00.407Z,27.18
2019-03-24T09:24:00.401Z,27.21
2019-03-24T09:25:00.393Z,27.14
2019-03-24T09:26:00.406Z,27.28
2019-03-24T09:27:00.381Z,27.31
2019-03-24T09:28:00.375Z,27.37
2019-03-24T09:29:00.371Z,27.28
2019-03-24T09:30:00.370Z,27.44
2019-03-24T09:31:00.358Z,27.68
2019-03-24T09:32:00.349Z,27.71
2019-03-24T09:33:00.343Z,27.64
2019-03-24T09:34:00.336Z,27.78
2019-03-24T09:35:00.522Z,27.91
2019-03-24T09:36:00.324Z,28.17
2019-03-24T09:37:00.316Z,28.48
2019-03-24T09:38:00.308Z,28.51
2019-03-24T09:39:00.302Z,28.54
2019-03-24T09:40:00.391Z,28.31
2019-03-24T09:41:00.290Z,28.33
2019-03-24T09:42:00.284Z,28.08
2019-03-24T09:43:00.280Z,27.99
2019-03-24T09:44:00.293Z,27.73
2019-03-24T09:45:00.348Z,27.59
2019-03-24T09:46:00.260Z,27.56
2019-03-24T09:47:00.259Z,27.55
2019-03-24T09:48:00.245Z,27.49
2019-03-24T09:49:03.299Z,27.40
2019-03-24T09:50:00.334Z,27.21
2019-03-24T09:51:00.227Z,27.07
2019-03-24T09:52:00.222Z,26.99
2019-03-24T09:53:00.216Z,26.83
2019-03-24T09:54:00.210Z,26.75
2019-03-24T09:55:00.326Z,26.62
2019-03-24T09:56:00.199Z,26.68
2019-03-24T09:57:00.190Z,26.53
2019-03-24T09:58:00.183Z,26.35
2019-03-24T09:59:00.177Z,26.38
2019-03-24T10:00:00.322Z,26.29
2019-03-24T10:01:00.163Z,26.13
2019-03-24T10:02:00.160Z,26.10
2019-03-24T10:03:00.155Z,26.07
2019-03-24T10:04:00.145Z,26.12
2019-03-24T10:05:00.140Z,26.01
2019-03-24T10:06:00.138Z,25.94
2019-03-24T10:07:00.127Z,25.94
2019-03-24T10:08:00.120Z,25.77
2019-03-24T10:09:00.127Z,25.85
2019-03-24T10:10:00.334Z,25.76
2019-03-24T10:11:00.135Z,25.69
2019-03-24T10:12:00.133Z,25.65
2019-03-24T10:13:00.134Z,25.58
2019-03-24T10:14:00.117Z,25.55
2019-03-24T10:15:00.292Z,25.47
2019-03-24T10:16:00.125Z,25.94
2019-03-24T10:17:00.122Z,25.92
2019-03-24T10:18:00.113Z,25.77
2019-03-24T10:19:00.104Z,25.75
2019-03-24T10:20:00.303Z,25.65
2019-03-24T10:21:00.091Z,25.58
2019-03-24T10:22:00.085Z,25.65
2019-03-24T10:23:00.075Z,26.17
2019-03-24T10:24:00.070Z,26.64
2019-03-24T10:25:00.115Z,26.68
2019-03-24T10:26:00.056Z,26.49
2019-03-24T10:27:00.049Z,26.34
2019-03-24T10:28:00.044Z,26.36
2019-03-24T10:29:00.037Z,26.54
2019-03-24T10:30:00.030Z,26.44
2019-03-24T10:31:00.024Z,26.47
2019-03-24T10:32:00.018Z,26.42
2019-03-24T10:33:00.011Z,26.36
2019-03-24T10:34:00.006Z,26.24
2019-03-24T10:35:00.001Z,26.38
2019-03-24T10:35:59.994Z,26.39
2019-03-24T10:36:59.986Z,26.28
2019-03-24T10:37:59.982Z,26.34
2019-03-24T10:38:59.971Z,26.31
2019-03-24T10:39:59.968Z,26.27
2019-03-24T10:40:59.957Z,26.22
2019-03-24T10:41:59.951Z,26.19
2019-03-24T10:42:59.945Z,26.12
2019-03-24T10:43:59.940Z,26.07
2019-03-24T10:44:59.935Z,26.13
2019-03-24T10:45:59.928Z,26.07
2019-03-24T10:46:59.921Z,26.01
2019-03-24T10:47:59.915Z,26.01
2019-03-24T10:48:59.909Z,26.06
2019-03-24T10:49:59.902Z,26.02
2019-03-24T10:50:59.894Z,25.99
2019-03-24T10:51:59.888Z,26.02
2019-03-24T10:52:59.884Z,25.94
2019-03-24T10:53:59.877Z,25.97
2019-03-24T10:54:59.868Z,25.92
2019-03-24T10:55:59.862Z,25.97
2019-03-24T10:56:59.854Z,25.91
2019-03-24T10:57:59.849Z,25.91
2019-03-24T10:58:59.841Z,25.85
2019-03-24T10:59:59.836Z,25.92
2019-03-24T11:00:59.828Z,25.88
2019-03-24T11:01:59.820Z,25.90
2019-03-24T11:02:59.816Z,25.83
2019-03-24T11:03:59.809Z,25.88
2019-03-24T11:04:59.802Z,25.80
2019-03-24T11:05:59.797Z,25.79
2019-03-24T11:06:59.787Z,25.77
2019-03-24T11:07:59.781Z,25.72
2019-03-24T11:08:59.777Z,25.75
2019-03-24T11:09:59.771Z,25.73
2019-03-24T11:10:59.763Z,25.73
2019-03-24T11:11:59.756Z,25.69
2019-03-24T11:12:59.749Z,25.69
2019-03-24T11:13:59.741Z,25.67
2019-03-24T11:14:59.733Z,25.67
2019-03-24T11:15:59.815Z,25.67
2019-03-24T11:16:59.723Z,25.61
2019-03-24T11:17:59.717Z,25.61
2019-03-24T11:18:59.710Z,25.61
2019-03-24T11:19:59.711Z,25.64
2019-03-24T11:20:59.697Z,25.57
2019-03-24T11:21:59.693Z,25.60
2019-03-24T11:22:59.683Z,25.58
2019-03-24T11:23:59.681Z,25.57
2019-03-24T11:24:59.673Z,25.58
2019-03-24T11:25:59.666Z,25.52
2019-03-24T11:26:59.661Z,25.55
2019-03-24T11:27:59.651Z,25.60
2019-03-24T11:28:59.648Z,25.47
2019-03-24T11:29:59.638Z,25.55
2019-03-24T11:30:59.634Z,25.51
2019-03-24T11:31:59.627Z,25.54
2019-03-24T11:32:59.618Z,25.45
2019-03-24T11:33:59.611Z,25.46
2019-03-24T11:34:59.605Z,25.57
2019-03-24T11:35:59.598Z,25.50
2019-03-24T11:36:59.595Z,25.55
2019-03-24T11:37:59.588Z,25.39
2019-03-24T11:38:59.578Z,25.39
2019-03-24T11:39:59.571Z,25.37
2019-03-24T11:40:59.566Z,25.38
2019-03-24T11:41:59.562Z,25.35
2019-03-24T11:42:59.550Z,25.39
2019-03-24T11:43:59.543Z,25.32
2019-03-24T11:44:59.539Z,25.31
2019-03-24T11:45:59.532Z,25.35
2019-03-24T11:46:59.525Z,25.32
2019-03-24T11:47:59.520Z,25.34
2019-03-24T11:48:59.528Z,25.35
2019-03-24T11:49:59.513Z,25.22
2019-03-24T11:50:59.501Z,25.34
2019-03-24T11:51:59.491Z,25.26
2019-03-24T11:52:59.489Z,25.31
2019-03-24T11:53:59.480Z,25.22
2019-03-24T11:54:59.472Z,25.27
2019-03-24T11:55:59.466Z,25.23
2019-03-24T11:56:59.457Z,25.26
2019-03-24T11:58:05.720Z,25.26
2019-03-24T11:59:27.233Z,25.24
2019-03-24T12:00:27.231Z,25.19
2019-03-24T12:01:37.753Z,25.20
2019-03-24T12:02:54.940Z,25.19
2019-03-24T12:03:54.941Z,25.13
2019-03-24T12:04:54.932Z,25.05
2019-03-24T12:05:54.925Z,25.05
2019-03-24T12:06:54.916Z,25.04
2019-03-24T12:07:54.963Z,25.01
2019-03-24T12:08:54.920Z,24.87
2019-03-24T12:09:54.916Z,24.87
2019-03-24T12:10:54.910Z,24.83
2019-03-24T12:11:54.907Z,24.84
2019-03-24T12:12:54.895Z,24.82
2019-03-24T12:13:54.889Z,24.79
2019-03-24T12:14:54.880Z,24.80
2019-03-24T12:15:54.873Z,24.87
2019-03-24T12:16:54.869Z,24.87
2019-03-24T12:17:54.859Z,24.86
2019-03-24T12:18:54.852Z,24.80
2019-03-24T12:19:57.008Z,24.87
2019-03-24T12:20:54.842Z,24.69
2019-03-24T12:21:54.835Z,24.86
2019-03-24T12:22:54.828Z,24.87
2019-03-24T12:23:54.821Z,24.79
2019-03-24T12:24:54.821Z,24.68
2019-03-24T12:25:54.808Z,24.67
2019-03-24T12:26:54.802Z,24.67
2019-03-24T12:27:54.795Z,24.61
2019-03-24T12:28:54.787Z,24.69
2019-03-24T12:29:54.781Z,24.58
2019-03-24T12:30:54.774Z,24.60
2019-03-24T12:31:54.771Z,24.55
2019-03-24T12:32:54.763Z,24.50
2019-03-24T12:33:54.756Z,24.52
2019-03-24T12:34:54.749Z,24.47
2019-03-24T12:35:54.744Z,24.50
2019-03-24T12:36:54.734Z,24.37
2019-03-24T12:37:54.727Z,24.40
2019-03-24T12:38:54.724Z,24.47
2019-03-24T12:39:54.765Z,24.45
2019-03-24T12:40:54.711Z,24.39
2019-03-24T12:41:54.703Z,24.30
2019-03-24T12:42:54.695Z,24.28
2019-03-24T12:43:54.691Z,24.37
2019-03-24T12:44:54.685Z,24.30
2019-03-24T12:45:54.679Z,24.39
2019-03-24T12:46:54.669Z,24.27
2019-03-24T12:47:54.668Z,24.24
2019-03-24T12:48:54.660Z,24.21
2019-03-24T12:49:54.654Z,24.24
2019-03-24T12:50:54.642Z,24.09
2019-03-24T12:51:54.638Z,24.18
2019-03-24T12:52:54.631Z,24.21
2019-03-24T12:53:54.624Z,24.15